sensor_id;sensor_type;location;lat;lon;timestamp;temperature;humidity
423;DHT22;198;48.752;9.180;2023-08-24T00:00:30;22.30;89.30
423;DHT22;198;48.752;9.180;2023-08-24T00:02:57;22.30;90.10
423;DHT22;198;48.752;9.180;2023-08-24T00:05:23;22.30;90.00
423;DHT22;198;48.752;9.180;2023-08-24T00:07:49;22.30;90.00
423;DHT22;198;48.752;9.180;2023-08-24T00:10:15;22.30;89.80
423;DHT22;198;48.752;9.180;2023-08-24T00:12:41;22.30;90.30
423;DHT22;198;48.752;9.180;2023-08-24T00:15:08;22.30;90.50
423;DHT22;198;48.752;9.180;2023-08-24T00:17:34;22.30;90.50
423;DHT22;198;48.752;9.180;2023-08-24T00:20:00;22.30;91.10
423;DHT22;198;48.752;9.180;2023-08-24T00:22:29;22.20;91.60
423;DHT22;198;48.752;9.180;2023-08-24T00:24:55;22.20;91.50
423;DHT22;198;48.752;9.180;2023-08-24T00:27:20;22.20;91.50
423;DHT22;198;48.752;9.180;2023-08-24T00:29:46;22.20;91.70
423;DHT22;198;48.752;9.180;2023-08-24T00:32:11;22.20;91.80
423;DHT22;198;48.752;9.180;2023-08-24T00:34:37;22.20;91.90
423;DHT22;198;48.752;9.180;2023-08-24T00:37:02;22.20;91.30
423;DHT22;198;48.752;9.180;2023-08-24T00:39:28;22.20;90.30
423;DHT22;198;48.752;9.180;2023-08-24T00:41:54;22.20;90.10
423;DHT22;198;48.752;9.180;2023-08-24T00:44:20;22.20;89.50
423;DHT22;198;48.752;9.180;2023-08-24T00:46:45;22.30;88.60
423;DHT22;198;48.752;9.180;2023-08-24T00:49:11;22.30;87.40
423;DHT22;198;48.752;9.180;2023-08-24T00:51:37;22.30;87.60
423;DHT22;198;48.752;9.180;2023-08-24T00:54:04;22.30;88.20
423;DHT22;198;48.752;9.180;2023-08-24T00:56:30;22.30;88.90
423;DHT22;198;48.752;9.180;2023-08-24T00:58:56;22.20;90.30
423;DHT22;198;48.752;9.180;2023-08-24T01:01:22;22.20;90.60
423;DHT22;198;48.752;9.180;2023-08-24T01:03:50;22.10;91.60
423;DHT22;198;48.752;9.180;2023-08-24T01:06:15;22.00;92.20
423;DHT22;198;48.752;9.180;2023-08-24T01:08:41;22.00;92.70
423;DHT22;198;48.752;9.180;2023-08-24T01:11:43;21.90;93.40
423;DHT22;198;48.752;9.180;2023-08-24T01:14:24;21.80;94.00
423;DHT22;198;48.752;9.180;2023-08-24T01:16:58;21.80;94.50
423;DHT22;198;48.752;9.180;2023-08-24T01:19:33;21.70;95.20
423;DHT22;198;48.752;9.180;2023-08-24T01:22:02;21.70;95.90
423;DHT22;198;48.752;9.180;2023-08-24T01:24:53;21.70;96.60
423;DHT22;198;48.752;9.180;2023-08-24T01:27:21;21.60;97.50
423;DHT22;198;48.752;9.180;2023-08-24T01:29:47;21.50;98.20
423;DHT22;198;48.752;9.180;2023-08-24T01:32:12;21.40;98.60
423;DHT22;198;48.752;9.180;2023-08-24T01:34:38;21.40;98.70
423;DHT22;198;48.752;9.180;2023-08-24T01:37:06;21.40;98.90
423;DHT22;198;48.752;9.180;2023-08-24T01:39:43;21.40;99.10
423;DHT22;198;48.752;9.180;2023-08-24T01:42:17;21.40;99.10
423;DHT22;198;48.752;9.180;2023-08-24T01:44:50;21.40;98.80
423;DHT22;198;48.752;9.180;2023-08-24T01:47:17;21.40;98.60
423;DHT22;198;48.752;9.180;2023-08-24T01:49:44;21.40;98.40
423;DHT22;198;48.752;9.180;2023-08-24T01:52:10;21.40;98.30
423;DHT22;198;48.752;9.180;2023-08-24T01:54:36;21.40;98.80
423;DHT22;198;48.752;9.180;2023-08-24T01:57:04;21.40;98.80
423;DHT22;198;48.752;9.180;2023-08-24T01:59:30;21.40;99.10
423;DHT22;198;48.752;9.180;2023-08-24T02:01:56;21.40;99.10
423;DHT22;198;48.752;9.180;2023-08-24T02:04:21;21.40;99.00
423;DHT22;198;48.752;9.180;2023-08-24T02:06:47;21.40;99.10
423;DHT22;198;48.752;9.180;2023-08-24T02:09:13;21.40;99.40
423;DHT22;198;48.752;9.180;2023-08-24T02:11:38;21.40;99.70
423;DHT22;198;48.752;9.180;2023-08-24T02:14:03;21.40;99.90
423;DHT22;198;48.752;9.180;2023-08-24T02:16:29;21.40;99.90
423;DHT22;198;48.752;9.180;2023-08-24T02:18:55;21.40;99.90
423;DHT22;198;48.752;9.180;2023-08-24T02:21:21;21.30;99.90
423;DHT22;198;48.752;9.180;2023-08-24T02:23:46;21.40;99.90
423;DHT22;198;48.752;9.180;2023-08-24T02:26:12;21.40;99.90
423;DHT22;198;48.752;9.180;2023-08-24T02:28:38;21.30;99.90
423;DHT22;198;48.752;9.180;2023-08-24T02:31:04;21.30;99.90
423;DHT22;198;48.752;9.180;2023-08-24T02:33:30;21.30;99.90
423;DHT22;198;48.752;9.180;2023-08-24T02:35:56;21.30;99.90
423;DHT22;198;48.752;9.180;2023-08-24T02:38:23;21.20;99.90
423;DHT22;198;48.752;9.180;2023-08-24T02:40:48;21.30;99.90
423;DHT22;198;48.752;9.180;2023-08-24T02:43:14;21.30;99.90
423;DHT22;198;48.752;9.180;2023-08-24T02:45:39;21.30;99.90
423;DHT22;198;48.752;9.180;2023-08-24T02:48:05;21.30;99.90
423;DHT22;198;48.752;9.180;2023-08-24T02:50:31;21.30;99.90
423;DHT22;198;48.752;9.180;2023-08-24T02:52:56;21.40;99.90
423;DHT22;198;48.752;9.180;2023-08-24T02:55:24;21.40;99.90
423;DHT22;198;48.752;9.180;2023-08-24T02:57:49;21.40;99.90
423;DHT22;198;48.752;9.180;2023-08-24T03:00:16;21.50;99.90
423;DHT22;198;48.752;9.180;2023-08-24T03:02:42;21.50;99.90
423;DHT22;198;48.752;9.180;2023-08-24T03:05:08;21.40;99.90
423;DHT22;198;48.752;9.180;2023-08-24T03:07:33;21.40;99.90
423;DHT22;198;48.752;9.180;2023-08-24T03:09:59;21.40;99.90
423;DHT22;198;48.752;9.180;2023-08-24T03:12:24;21.40;99.90
423;DHT22;198;48.752;9.180;2023-08-24T03:14:53;21.40;99.90
423;DHT22;198;48.752;9.180;2023-08-24T03:17:19;21.40;99.90
423;DHT22;198;48.752;9.180;2023-08-24T03:19:44;21.40;99.90
423;DHT22;198;48.752;9.180;2023-08-24T03:22:10;21.40;99.90
423;DHT22;198;48.752;9.180;2023-08-24T03:24:35;21.50;99.90
423;DHT22;198;48.752;9.180;2023-08-24T03:27:01;21.50;99.90
423;DHT22;198;48.752;9.180;2023-08-24T03:29:27;21.50;99.90
423;DHT22;198;48.752;9.180;2023-08-24T03:31:52;21.50;99.90
423;DHT22;198;48.752;9.180;2023-08-24T03:34:18;21.40;99.90
423;DHT22;198;48.752;9.180;2023-08-24T03:36:46;21.40;99.90
423;DHT22;198;48.752;9.180;2023-08-24T03:39:13;21.30;99.90
423;DHT22;198;48.752;9.180;2023-08-24T03:41:39;21.30;99.90
423;DHT22;198;48.752;9.180;2023-08-24T03:44:04;21.30;99.90
423;DHT22;198;48.752;9.180;2023-08-24T03:46:30;21.30;99.90
423;DHT22;198;48.752;9.180;2023-08-24T03:48:55;21.40;99.90
423;DHT22;198;48.752;9.180;2023-08-24T03:51:21;21.50;99.90
423;DHT22;198;48.752;9.180;2023-08-24T03:53:46;21.50;99.90
423;DHT22;198;48.752;9.180;2023-08-24T03:56:12;21.50;99.90
423;DHT22;198;48.752;9.180;2023-08-24T03:58:37;21.50;99.90
423;DHT22;198;48.752;9.180;2023-08-24T04:01:03;21.60;99.90
423;DHT22;198;48.752;9.180;2023-08-24T04:03:28;21.60;99.90
423;DHT22;198;48.752;9.180;2023-08-24T04:05:54;21.70;99.90
423;DHT22;198;48.752;9.180;2023-08-24T04:08:19;21.70;99.90
423;DHT22;198;48.752;9.180;2023-08-24T04:10:45;21.70;99.90
423;DHT22;198;48.752;9.180;2023-08-24T04:13:10;21.70;99.90
423;DHT22;198;48.752;9.180;2023-08-24T04:15:36;21.70;99.90
423;DHT22;198;48.752;9.180;2023-08-24T04:18:01;21.70;99.90
423;DHT22;198;48.752;9.180;2023-08-24T04:20:27;21.70;99.90
423;DHT22;198;48.752;9.180;2023-08-24T04:22:54;21.70;99.90
423;DHT22;198;48.752;9.180;2023-08-24T04:25:20;21.70;99.90
423;DHT22;198;48.752;9.180;2023-08-24T04:27:45;21.80;99.90
423;DHT22;198;48.752;9.180;2023-08-24T04:30:11;21.70;99.90
423;DHT22;198;48.752;9.180;2023-08-24T04:32:37;21.70;99.90
423;DHT22;198;48.752;9.180;2023-08-24T04:35:03;21.60;99.90
423;DHT22;198;48.752;9.180;2023-08-24T04:37:28;21.60;99.90
423;DHT22;198;48.752;9.180;2023-08-24T04:39:54;21.60;99.90
423;DHT22;198;48.752;9.180;2023-08-24T04:42:19;21.60;99.90
423;DHT22;198;48.752;9.180;2023-08-24T04:44:45;21.60;99.90
423;DHT22;198;48.752;9.180;2023-08-24T04:47:10;21.50;99.90
423;DHT22;198;48.752;9.180;2023-08-24T04:49:36;21.50;99.90
423;DHT22;198;48.752;9.180;2023-08-24T04:52:02;21.40;99.90
423;DHT22;198;48.752;9.180;2023-08-24T04:54:28;21.40;99.90
423;DHT22;198;48.752;9.180;2023-08-24T04:56:54;21.40;99.90
423;DHT22;198;48.752;9.180;2023-08-24T04:59:19;21.30;99.90
423;DHT22;198;48.752;9.180;2023-08-24T05:01:45;21.30;99.90
423;DHT22;198;48.752;9.180;2023-08-24T05:04:10;21.20;99.90
423;DHT22;198;48.752;9.180;2023-08-24T05:06:36;21.20;99.90
423;DHT22;198;48.752;9.180;2023-08-24T05:09:02;21.30;99.90
423;DHT22;198;48.752;9.180;2023-08-24T05:11:28;21.40;99.90
423;DHT22;198;48.752;9.180;2023-08-24T05:13:57;21.40;99.90
423;DHT22;198;48.752;9.180;2023-08-24T05:16:23;21.50;99.90
423;DHT22;198;48.752;9.180;2023-08-24T05:18:48;21.60;99.90
423;DHT22;198;48.752;9.180;2023-08-24T05:21:14;21.70;99.90
423;DHT22;198;48.752;9.180;2023-08-24T05:23:39;21.70;99.30
423;DHT22;198;48.752;9.180;2023-08-24T05:26:05;21.80;98.80
423;DHT22;198;48.752;9.180;2023-08-24T05:28:31;21.80;98.60
423;DHT22;198;48.752;9.180;2023-08-24T05:30:57;21.90;98.40
423;DHT22;198;48.752;9.180;2023-08-24T05:33:24;21.90;98.20
423;DHT22;198;48.752;9.180;2023-08-24T05:35:50;21.90;98.00
423;DHT22;198;48.752;9.180;2023-08-24T05:38:16;22.00;98.00
423;DHT22;198;48.752;9.180;2023-08-24T05:40:47;22.00;98.10
423;DHT22;198;48.752;9.180;2023-08-24T05:43:13;22.00;98.00
423;DHT22;198;48.752;9.180;2023-08-24T05:45:39;22.00;97.80
423;DHT22;198;48.752;9.180;2023-08-24T05:48:06;22.00;97.80
423;DHT22;198;48.752;9.180;2023-08-24T05:50:32;22.10;97.60
423;DHT22;198;48.752;9.180;2023-08-24T05:52:57;22.10;97.60
423;DHT22;198;48.752;9.180;2023-08-24T05:55:23;22.20;97.60
423;DHT22;198;48.752;9.180;2023-08-24T05:57:48;22.20;97.50
423;DHT22;198;48.752;9.180;2023-08-24T06:00:14;22.30;97.30
423;DHT22;198;48.752;9.180;2023-08-24T06:02:40;22.40;97.20
423;DHT22;198;48.752;9.180;2023-08-24T06:05:06;22.50;96.70
423;DHT22;198;48.752;9.180;2023-08-24T06:07:33;22.60;96.40
423;DHT22;198;48.752;9.180;2023-08-24T06:09:59;22.70;96.00
423;DHT22;198;48.752;9.180;2023-08-24T06:12:25;22.80;96.10
423;DHT22;198;48.752;9.180;2023-08-24T06:14:50;22.80;95.40
423;DHT22;198;48.752;9.180;2023-08-24T06:17:16;22.90;94.90
423;DHT22;198;48.752;9.180;2023-08-24T06:19:41;22.90;94.90
423;DHT22;198;48.752;9.180;2023-08-24T06:22:07;23.00;94.70
423;DHT22;198;48.752;9.180;2023-08-24T06:24:32;23.00;94.70
423;DHT22;198;48.752;9.180;2023-08-24T06:26:58;23.10;94.40
423;DHT22;198;48.752;9.180;2023-08-24T06:29:24;23.10;94.20
423;DHT22;198;48.752;9.180;2023-08-24T06:31:49;23.10;94.20
423;DHT22;198;48.752;9.180;2023-08-24T06:34:15;23.10;94.00
423;DHT22;198;48.752;9.180;2023-08-24T06:36:40;23.10;94.00
423;DHT22;198;48.752;9.180;2023-08-24T06:39:06;23.10;94.20
423;DHT22;198;48.752;9.180;2023-08-24T06:41:34;23.10;93.90
423;DHT22;198;48.752;9.180;2023-08-24T06:44:00;23.20;93.90
423;DHT22;198;48.752;9.180;2023-08-24T06:46:26;23.30;94.10
423;DHT22;198;48.752;9.180;2023-08-24T06:48:51;23.40;94.40
423;DHT22;198;48.752;9.180;2023-08-24T06:51:17;23.50;94.90
423;DHT22;198;48.752;9.180;2023-08-24T06:53:42;23.60;95.20
423;DHT22;198;48.752;9.180;2023-08-24T06:56:08;23.70;95.40
423;DHT22;198;48.752;9.180;2023-08-24T06:58:34;23.80;95.10
423;DHT22;198;48.752;9.180;2023-08-24T07:01:00;23.80;95.20
423;DHT22;198;48.752;9.180;2023-08-24T07:03:25;24.00;95.10
423;DHT22;198;48.752;9.180;2023-08-24T07:05:51;24.10;95.00
423;DHT22;198;48.752;9.180;2023-08-24T07:08:17;24.30;94.80
423;DHT22;198;48.752;9.180;2023-08-24T07:10:43;24.50;94.40
423;DHT22;198;48.752;9.180;2023-08-24T07:13:09;24.70;94.10
423;DHT22;198;48.752;9.180;2023-08-24T07:15:34;24.90;93.70
423;DHT22;198;48.752;9.180;2023-08-24T07:18:03;25.20;92.40
423;DHT22;198;48.752;9.180;2023-08-24T07:20:32;25.40;91.30
423;DHT22;198;48.752;9.180;2023-08-24T07:22:58;25.70;90.80
423;DHT22;198;48.752;9.180;2023-08-24T07:25:23;25.80;90.20
423;DHT22;198;48.752;9.180;2023-08-24T07:27:49;25.80;89.60
423;DHT22;198;48.752;9.180;2023-08-24T07:30:14;26.00;88.60
423;DHT22;198;48.752;9.180;2023-08-24T07:32:40;26.20;87.60
423;DHT22;198;48.752;9.180;2023-08-24T07:35:07;26.30;85.20
423;DHT22;198;48.752;9.180;2023-08-24T07:37:32;26.30;84.00
423;DHT22;198;48.752;9.180;2023-08-24T07:39:58;26.30;83.90
423;DHT22;198;48.752;9.180;2023-08-24T07:42:23;26.20;84.90
423;DHT22;198;48.752;9.180;2023-08-24T07:44:50;26.10;84.90
423;DHT22;198;48.752;9.180;2023-08-24T07:47:15;26.00;85.20
423;DHT22;198;48.752;9.180;2023-08-24T07:49:41;26.00;86.10
423;DHT22;198;48.752;9.180;2023-08-24T07:52:13;26.10;86.00
423;DHT22;198;48.752;9.180;2023-08-24T07:54:39;26.10;86.00
423;DHT22;198;48.752;9.180;2023-08-24T07:57:05;26.10;86.40
423;DHT22;198;48.752;9.180;2023-08-24T07:59:31;26.20;86.70
423;DHT22;198;48.752;9.180;2023-08-24T08:01:57;26.30;86.90
423;DHT22;198;48.752;9.180;2023-08-24T08:04:22;26.40;86.00
423;DHT22;198;48.752;9.180;2023-08-24T08:06:48;26.50;85.50
423;DHT22;198;48.752;9.180;2023-08-24T08:09:13;26.70;83.70
423;DHT22;198;48.752;9.180;2023-08-24T08:11:39;26.80;82.60
423;DHT22;198;48.752;9.180;2023-08-24T08:14:04;27.00;82.00
423;DHT22;198;48.752;9.180;2023-08-24T08:16:30;27.20;81.10
423;DHT22;198;48.752;9.180;2023-08-24T08:18:56;27.20;79.80
423;DHT22;198;48.752;9.180;2023-08-24T08:21:21;27.10;79.20
423;DHT22;198;48.752;9.180;2023-08-24T08:23:48;27.00;79.10
423;DHT22;198;48.752;9.180;2023-08-24T08:26:14;27.10;79.90
423;DHT22;198;48.752;9.180;2023-08-24T08:28:40;27.20;79.50
423;DHT22;198;48.752;9.180;2023-08-24T08:31:05;27.40;79.00
423;DHT22;198;48.752;9.180;2023-08-24T08:33:31;27.50;77.90
423;DHT22;198;48.752;9.180;2023-08-24T08:35:57;27.70;77.30
423;DHT22;198;48.752;9.180;2023-08-24T08:38:22;27.80;77.10
423;DHT22;198;48.752;9.180;2023-08-24T08:40:51;27.90;74.60
423;DHT22;198;48.752;9.180;2023-08-24T08:43:19;28.10;73.90
423;DHT22;198;48.752;9.180;2023-08-24T08:45:46;28.50;72.90
423;DHT22;198;48.752;9.180;2023-08-24T08:48:12;28.80;67.50
423;DHT22;198;48.752;9.180;2023-08-24T08:50:38;29.00;68.00
423;DHT22;198;48.752;9.180;2023-08-24T08:53:04;29.30;67.90
423;DHT22;198;48.752;9.180;2023-08-24T08:55:31;29.60;65.60
423;DHT22;198;48.752;9.180;2023-08-24T08:57:58;29.70;63.70
423;DHT22;198;48.752;9.180;2023-08-24T09:00:31;30.00;64.30
423;DHT22;198;48.752;9.180;2023-08-24T09:02:57;30.10;62.70
423;DHT22;198;48.752;9.180;2023-08-24T09:05:24;30.30;63.00
423;DHT22;198;48.752;9.180;2023-08-24T09:07:53;30.60;60.60
423;DHT22;198;48.752;9.180;2023-08-24T09:10:19;30.80;60.40
423;DHT22;198;48.752;9.180;2023-08-24T09:12:45;30.90;58.30
423;DHT22;198;48.752;9.180;2023-08-24T09:15:10;31.20;58.60
423;DHT22;198;48.752;9.180;2023-08-24T09:17:42;31.30;57.70
423;DHT22;198;48.752;9.180;2023-08-24T09:20:08;31.40;55.40
423;DHT22;198;48.752;9.180;2023-08-24T09:22:35;31.30;55.50
423;DHT22;198;48.752;9.180;2023-08-24T09:25:02;31.50;55.00
423;DHT22;198;48.752;9.180;2023-08-24T09:27:29;31.70;54.60
423;DHT22;198;48.752;9.180;2023-08-24T09:29:54;32.10;52.80
423;DHT22;198;48.752;9.180;2023-08-24T09:32:24;32.80;53.80
423;DHT22;198;48.752;9.180;2023-08-24T09:34:52;33.90;52.60
423;DHT22;198;48.752;9.180;2023-08-24T09:37:18;35.00;49.80
423;DHT22;198;48.752;9.180;2023-08-24T09:39:45;35.90;46.90
423;DHT22;198;48.752;9.180;2023-08-24T09:42:11;36.80;43.10
423;DHT22;198;48.752;9.180;2023-08-24T09:44:36;37.50;43.00
423;DHT22;198;48.752;9.180;2023-08-24T09:47:02;38.30;41.20
423;DHT22;198;48.752;9.180;2023-08-24T09:49:28;39.10;38.50
423;DHT22;198;48.752;9.180;2023-08-24T09:51:57;40.30;37.60
423;DHT22;198;48.752;9.180;2023-08-24T09:54:27;41.30;35.30
423;DHT22;198;48.752;9.180;2023-08-24T09:56:54;42.10;34.90
423;DHT22;198;48.752;9.180;2023-08-24T09:59:22;43.50;32.00
423;DHT22;198;48.752;9.180;2023-08-24T10:01:50;44.60;30.20
423;DHT22;198;48.752;9.180;2023-08-24T10:04:25;45.50;28.50
423;DHT22;198;48.752;9.180;2023-08-24T10:06:57;46.40;27.90
423;DHT22;198;48.752;9.180;2023-08-24T10:09:28;47.40;26.80
423;DHT22;198;48.752;9.180;2023-08-24T10:11:59;48.50;25.90
423;DHT22;198;48.752;9.180;2023-08-24T10:17:11;49.90;23.80
423;DHT22;198;48.752;9.180;2023-08-24T10:19:36;50.00;23.30
423;DHT22;198;48.752;9.180;2023-08-24T10:22:03;49.70;22.90
423;DHT22;198;48.752;9.180;2023-08-24T10:24:29;50.20;23.20
423;DHT22;198;48.752;9.180;2023-08-24T10:26:57;50.20;22.70
423;DHT22;198;48.752;9.180;2023-08-24T10:29:23;50.10;22.20
423;DHT22;198;48.752;9.180;2023-08-24T10:31:51;50.60;22.10
423;DHT22;198;48.752;9.180;2023-08-24T10:34:16;50.60;22.50
423;DHT22;198;48.752;9.180;2023-08-24T10:36:42;50.90;21.90
423;DHT22;198;48.752;9.180;2023-08-24T10:39:08;51.90;22.40
423;DHT22;198;48.752;9.180;2023-08-24T10:41:50;52.90;21.70
423;DHT22;198;48.752;9.180;2023-08-24T10:44:23;54.30;21.10
423;DHT22;198;48.752;9.180;2023-08-24T10:49:38;54.30;20.70
423;DHT22;198;48.752;9.180;2023-08-24T10:52:22;55.10;20.90
423;DHT22;198;48.752;9.180;2023-08-24T10:54:52;56.10;20.40
423;DHT22;198;48.752;9.180;2023-08-24T10:57:22;55.20;19.60
423;DHT22;198;48.752;9.180;2023-08-24T11:00:05;54.80;19.90
423;DHT22;198;48.752;9.180;2023-08-24T11:02:45;54.40;20.40
423;DHT22;198;48.752;9.180;2023-08-24T11:05:28;53.60;20.40
423;DHT22;198;48.752;9.180;2023-08-24T11:07:57;52.80;20.90
423;DHT22;198;48.752;9.180;2023-08-24T11:10:31;52.60;21.40
423;DHT22;198;48.752;9.180;2023-08-24T11:15:44;52.60;21.20
423;DHT22;198;48.752;9.180;2023-08-24T11:20:45;54.80;20.10
423;DHT22;198;48.752;9.180;2023-08-24T11:23:12;55.40;20.00
423;DHT22;198;48.752;9.180;2023-08-24T11:25:38;55.50;19.90
423;DHT22;198;48.752;9.180;2023-08-24T11:28:04;56.00;20.20
423;DHT22;198;48.752;9.180;2023-08-24T11:30:34;55.50;19.40
423;DHT22;198;48.752;9.180;2023-08-24T11:32:59;54.90;19.70
423;DHT22;198;48.752;9.180;2023-08-24T11:35:25;55.30;20.50
423;DHT22;198;48.752;9.180;2023-08-24T11:37:55;55.90;19.30
423;DHT22;198;48.752;9.180;2023-08-24T11:40:21;56.30;19.90
423;DHT22;198;48.752;9.180;2023-08-24T11:42:55;55.80;19.40
423;DHT22;198;48.752;9.180;2023-08-24T11:45:21;56.20;19.50
423;DHT22;198;48.752;9.180;2023-08-24T11:47:48;56.90;19.20
423;DHT22;198;48.752;9.180;2023-08-24T11:50:13;56.20;19.10
423;DHT22;198;48.752;9.180;2023-08-24T11:52:40;56.60;19.40
423;DHT22;198;48.752;9.180;2023-08-24T11:55:05;58.30;19.20
423;DHT22;198;48.752;9.180;2023-08-24T11:57:34;59.20;18.30
423;DHT22;198;48.752;9.180;2023-08-24T11:59:59;58.50;17.70
423;DHT22;198;48.752;9.180;2023-08-24T12:02:25;58.30;18.30
423;DHT22;198;48.752;9.180;2023-08-24T12:04:51;57.10;18.10
423;DHT22;198;48.752;9.180;2023-08-24T12:07:16;55.80;18.90
423;DHT22;198;48.752;9.180;2023-08-24T12:09:45;55.70;19.10
423;DHT22;198;48.752;9.180;2023-08-24T12:12:14;56.30;19.70
423;DHT22;198;48.752;9.180;2023-08-24T12:14:44;55.70;19.10
423;DHT22;198;48.752;9.180;2023-08-24T12:17:10;53.20;19.90
423;DHT22;198;48.752;9.180;2023-08-24T12:19:36;51.20;21.20
423;DHT22;198;48.752;9.180;2023-08-24T12:22:03;49.50;22.40
423;DHT22;198;48.752;9.180;2023-08-24T12:24:28;48.80;22.80
423;DHT22;198;48.752;9.180;2023-08-24T12:26:57;48.20;23.50
423;DHT22;198;48.752;9.180;2023-08-24T12:29:23;48.70;23.30
423;DHT22;198;48.752;9.180;2023-08-24T12:31:49;49.60;22.90
423;DHT22;198;48.752;9.180;2023-08-24T12:34:15;52.40;22.00
423;DHT22;198;48.752;9.180;2023-08-24T12:36:41;54.20;20.20
423;DHT22;198;48.752;9.180;2023-08-24T12:39:11;55.40;20.10
423;DHT22;198;48.752;9.180;2023-08-24T12:41:38;55.80;19.20
423;DHT22;198;48.752;9.180;2023-08-24T12:44:04;55.50;19.90
423;DHT22;198;48.752;9.180;2023-08-24T12:46:36;54.70;19.70
423;DHT22;198;48.752;9.180;2023-08-24T12:49:02;54.70;19.50
423;DHT22;198;48.752;9.180;2023-08-24T12:51:28;54.00;19.90
423;DHT22;198;48.752;9.180;2023-08-24T12:53:54;54.10;20.20
423;DHT22;198;48.752;9.180;2023-08-24T12:56:19;55.10;20.20
423;DHT22;198;48.752;9.180;2023-08-24T12:58:45;54.80;19.00
423;DHT22;198;48.752;9.180;2023-08-24T13:01:13;56.30;19.40
423;DHT22;198;48.752;9.180;2023-08-24T13:03:39;57.60;18.30
423;DHT22;198;48.752;9.180;2023-08-24T13:06:07;57.00;18.20
423;DHT22;198;48.752;9.180;2023-08-24T13:08:33;56.20;18.30
423;DHT22;198;48.752;9.180;2023-08-24T13:10:59;55.60;18.40
423;DHT22;198;48.752;9.180;2023-08-24T13:13:25;55.10;19.00
423;DHT22;198;48.752;9.180;2023-08-24T13:15:50;54.90;19.20
423;DHT22;198;48.752;9.180;2023-08-24T13:18:17;55.10;19.50
423;DHT22;198;48.752;9.180;2023-08-24T13:20:42;54.60;19.50
423;DHT22;198;48.752;9.180;2023-08-24T13:23:08;54.10;20.10
423;DHT22;198;48.752;9.180;2023-08-24T13:25:33;53.70;20.00
423;DHT22;198;48.752;9.180;2023-08-24T13:27:59;53.20;19.90
423;DHT22;198;48.752;9.180;2023-08-24T13:30:24;53.00;19.70
423;DHT22;198;48.752;9.180;2023-08-24T13:32:50;54.10;19.60
423;DHT22;198;48.752;9.180;2023-08-24T13:35:15;54.70;19.00
423;DHT22;198;48.752;9.180;2023-08-24T13:37:41;54.90;19.20
423;DHT22;198;48.752;9.180;2023-08-24T13:40:06;54.70;19.20
423;DHT22;198;48.752;9.180;2023-08-24T13:42:33;52.80;19.40
423;DHT22;198;48.752;9.180;2023-08-24T13:44:58;52.20;20.40
423;DHT22;198;48.752;9.180;2023-08-24T13:47:24;52.70;20.50
423;DHT22;198;48.752;9.180;2023-08-24T13:49:50;52.00;20.00
423;DHT22;198;48.752;9.180;2023-08-24T13:52:15;50.00;20.90
423;DHT22;198;48.752;9.180;2023-08-24T13:54:41;49.10;21.80
423;DHT22;198;48.752;9.180;2023-08-24T13:57:08;51.30;20.70
423;DHT22;198;48.752;9.180;2023-08-24T13:59:33;52.70;19.30
423;DHT22;198;48.752;9.180;2023-08-24T14:01:59;53.20;18.60
423;DHT22;198;48.752;9.180;2023-08-24T14:04:24;52.90;19.10
423;DHT22;198;48.752;9.180;2023-08-24T14:06:50;53.50;18.70
423;DHT22;198;48.752;9.180;2023-08-24T14:09:15;54.60;18.30
423;DHT22;198;48.752;9.180;2023-08-24T14:11:41;54.90;18.10
423;DHT22;198;48.752;9.180;2023-08-24T14:14:07;55.20;17.50
423;DHT22;198;48.752;9.180;2023-08-24T14:16:33;54.20;17.80
423;DHT22;198;48.752;9.180;2023-08-24T14:18:58;52.00;18.80
423;DHT22;198;48.752;9.180;2023-08-24T14:21:24;49.70;19.90
423;DHT22;198;48.752;9.180;2023-08-24T14:23:50;48.20;20.10
423;DHT22;198;48.752;9.180;2023-08-24T14:26:15;46.50;20.90
423;DHT22;198;48.752;9.180;2023-08-24T14:28:52;45.00;21.70
423;DHT22;198;48.752;9.180;2023-08-24T14:31:26;43.60;23.00
423;DHT22;198;48.752;9.180;2023-08-24T14:33:52;42.40;24.40
423;DHT22;198;48.752;9.180;2023-08-24T14:36:19;41.30;25.40
423;DHT22;198;48.752;9.180;2023-08-24T14:38:45;40.40;26.40
423;DHT22;198;48.752;9.180;2023-08-24T14:41:13;39.60;27.30
423;DHT22;198;48.752;9.180;2023-08-24T14:43:39;39.00;27.70
423;DHT22;198;48.752;9.180;2023-08-24T14:46:05;38.40;28.50
423;DHT22;198;48.752;9.180;2023-08-24T14:48:31;37.80;29.10
423;DHT22;198;48.752;9.180;2023-08-24T14:50:57;37.20;30.00
423;DHT22;198;48.752;9.180;2023-08-24T14:53:23;36.70;30.80
423;DHT22;198;48.752;9.180;2023-08-24T14:55:49;36.20;31.60
423;DHT22;198;48.752;9.180;2023-08-24T14:58:14;35.80;32.50
423;DHT22;198;48.752;9.180;2023-08-24T15:00:40;35.50;33.20
423;DHT22;198;48.752;9.180;2023-08-24T15:03:05;35.10;34.30
423;DHT22;198;48.752;9.180;2023-08-24T15:05:31;34.70;37.10
423;DHT22;198;48.752;9.180;2023-08-24T15:08:02;34.30;39.40
423;DHT22;198;48.752;9.180;2023-08-24T15:10:28;33.80;41.30
423;DHT22;198;48.752;9.180;2023-08-24T15:12:53;33.40;43.20
423;DHT22;198;48.752;9.180;2023-08-24T15:15:19;32.90;44.80
423;DHT22;198;48.752;9.180;2023-08-24T15:17:44;32.40;48.40
423;DHT22;198;48.752;9.180;2023-08-24T15:20:10;31.80;50.10
423;DHT22;198;48.752;9.180;2023-08-24T15:22:38;31.20;51.90
423;DHT22;198;48.752;9.180;2023-08-24T15:25:05;30.60;53.60
423;DHT22;198;48.752;9.180;2023-08-24T15:27:30;30.20;55.40
423;DHT22;198;48.752;9.180;2023-08-24T15:29:56;29.90;56.30
423;DHT22;198;48.752;9.180;2023-08-24T15:32:22;29.70;57.20
423;DHT22;198;48.752;9.180;2023-08-24T15:34:48;29.60;58.30
423;DHT22;198;48.752;9.180;2023-08-24T15:37:14;29.60;58.70
423;DHT22;198;48.752;9.180;2023-08-24T15:39:40;29.60;59.10
423;DHT22;198;48.752;9.180;2023-08-24T15:42:06;29.70;59.50
423;DHT22;198;48.752;9.180;2023-08-24T15:44:33;29.80;59.00
423;DHT22;198;48.752;9.180;2023-08-24T15:47:00;29.70;59.40
423;DHT22;198;48.752;9.180;2023-08-24T15:49:25;29.70;58.80
423;DHT22;198;48.752;9.180;2023-08-24T15:51:52;29.50;59.00
423;DHT22;198;48.752;9.180;2023-08-24T15:54:17;29.30;59.20
423;DHT22;198;48.752;9.180;2023-08-24T15:56:43;29.20;59.70
423;DHT22;198;48.752;9.180;2023-08-24T15:59:16;29.10;60.00
423;DHT22;198;48.752;9.180;2023-08-24T16:01:42;29.00;60.20
423;DHT22;198;48.752;9.180;2023-08-24T16:04:08;28.90;59.70
423;DHT22;198;48.752;9.180;2023-08-24T16:06:33;28.90;59.70
423;DHT22;198;48.752;9.180;2023-08-24T16:08:59;28.90;59.80
423;DHT22;198;48.752;9.180;2023-08-24T16:11:24;29.10;59.90
423;DHT22;198;48.752;9.180;2023-08-24T16:13:50;29.20;59.90
423;DHT22;198;48.752;9.180;2023-08-24T16:16:15;29.50;59.60
423;DHT22;198;48.752;9.180;2023-08-24T16:18:41;29.70;59.10
423;DHT22;198;48.752;9.180;2023-08-24T16:21:06;29.70;59.10
423;DHT22;198;48.752;9.180;2023-08-24T16:23:32;29.60;59.80
423;DHT22;198;48.752;9.180;2023-08-24T16:25:57;29.50;59.70
423;DHT22;198;48.752;9.180;2023-08-24T16:28:24;29.40;59.90
423;DHT22;198;48.752;9.180;2023-08-24T16:30:50;29.30;59.00
423;DHT22;198;48.752;9.180;2023-08-24T16:33:17;29.20;58.70
423;DHT22;198;48.752;9.180;2023-08-24T16:35:49;29.10;58.70
423;DHT22;198;48.752;9.180;2023-08-24T16:38:15;29.00;59.10
423;DHT22;198;48.752;9.180;2023-08-24T16:40:40;29.00;59.80